Locar Heliport

SILV · São Paulo, 巴西

METAR的历史 SILV · Locar Heliport

下面你可以看到过去几天的METARs。 选择年份以浏览从2007年开始的旧METAR。

2024年5月23日

时间 代码 天气 温度 能见度 天花板 METAR/SPECI
17:00
V
27 °C 10 km+ - 320° 320° 7 kt METAR SBGR 232000Z 32007KT CAVOK 27/10 Q1017
16:00
V
28 °C 10 km+ - 340° 340° 9 kt METAR SBGR 231900Z 34009KT CAVOK 28/11 Q1017
15:00
V
28 °C 10 km+ - 350° 350° 9 kt METAR SBGR 231800Z 35009KT CAVOK 28/11 Q1017
14:00
V
28 °C 10 km+ - 010° 010° 11 kt METAR SBGR 231700Z 01011KT CAVOK 28/12 Q1017
13:00
V
28 °C 10 km+ - 350° 350° 12 kt METAR SBGR 231600Z 35012KT CAVOK 28/12 Q1018
12:00
V
27 °C 10 km+ - 340° 340° 10 kt METAR SBGR 231500Z 34010KT CAVOK 27/12 Q1020
11:00
V
26 °C 10 km+ - 330° 330° 11 kt METAR SBGR 231400Z 33011KT CAVOK 26/13 Q1021
10:00
V
24 °C 10 km+ - 340° 340° 6 kt METAR SBGR 231300Z 34006KT CAVOK 24/14 Q1022
09:00
V
22 °C 10 km+ - 350° 350° 7 kt METAR SBGR 231200Z 35007KT CAVOK 22/14 Q1020
08:00
V
20 °C 10 km+ - 010° 010° 12 kt METAR SBGR 231100Z 01012KT CAVOK 20/15 Q1021
07:00
V
17 °C 10 km+ - 060° 060° 6 kt METAR SBGR 231000Z 06006KT CAVOK 17/14 Q1020
06:00
V
18 °C 10 km+ - 060° 060° 8 kt METAR SBGR 230900Z 06008KT CAVOK 18/15 Q1019
05:00
V
17 °C 10 km+ - 080° 080° 7 kt METAR SBGR 230800Z 08007KT CAVOK 17/16 Q1019
04:00
V
16 °C 10 km+ - 080° 080° 2 kt METAR SBGR 230700Z 08002KT CAVOK 16/15 Q1019
03:00
V
16 °C 10 km+ - 060° 060° 3 kt METAR SBGR 230600Z 06003KT CAVOK 16/15 Q1019
02:00
V
17 °C 10 km+ - 060° 060° 1 kt METAR SBGR 230500Z 06001KT CAVOK 17/16 Q1020
01:00
V
18 °C 10 km+ - 080° 080° 3 kt METAR SBGR 230400Z 08003KT CAVOK 18/16 Q1020
00:00
V
18 °C 10 km+ - 080° 080° 1 kt METAR SBGR 230300Z 08001KT CAVOK 18/16 Q1021

2024年5月22日

时间 代码 天气 温度 能见度 天花板 METAR/SPECI
23:00
V
18 °C 10 km+ - 090° 090° 1 kt METAR SBGR 230200Z 09001KT CAVOK 18/17 Q1021
22:00
V
18 °C 10 km+ - 020° 020° 1 kt METAR SBGR 230100Z 02001KT CAVOK 18/17 Q1021
21:00
V
21 °C 9 km - 060° 060° 4 kt METAR SBGR 230000Z 06004KT 9000 NSC 21/17 Q1021
20:00
V
22 °C 10 km+ - 080° 080° 4 kt METAR SBGR 222300Z 08004KT CAVOK 22/17 Q1021
19:00
V
22 °C 10 km+ - 080° 080° 6 kt METAR SBGR 222200Z 08006KT CAVOK 22/17 Q1021
18:00
V
24 °C 10 km+ - 090° 090° 4 kt METAR SBGR 222100Z 09004KT CAVOK 24/17 Q1020
17:00
V
26 °C 10 km+ - 050° 050° 8 kt METAR SBGR 222000Z 05008KT CAVOK 26/15 Q1020
16:00
V
28 °C 10 km+ - 080° 080° 6 kt METAR SBGR 221900Z 08006KT 9999 FEW035 28/14 Q1020
15:00
V
28 °C 10 km+ - 060° 060° 6 kt METAR SBGR 221800Z 06006KT 9999 FEW035 28/14 Q1020
14:00
V
28 °C 10 km+ - 030° 030° 5 kt METAR SBGR 221700Z 03005KT 9999 FEW035 28/14 Q1021
13:00
V
26 °C 10 km+ - 080° 080° 4 kt METAR SBGR 221600Z 08004KT 9999 FEW035 26/18 Q1021
12:00
V
24 °C 10 km+ - 070° 070° 7 kt METAR SBGR 221500Z 07007KT CAVOK 24/18 Q1023
11:00
V
22 °C 10 km+ - 070° 070° 9 kt METAR SBGR 221400Z 07009KT 9999 FEW013 22/18 Q1024
10:00
I
21 °C 9 km 800 ft 070° 070° 10 kt METAR SBGR 221300Z 07010KT 9000 BKN008 21/18 Q1025
09:00
I
19 °C 6 km 600 ft 070° 070° 9 kt METAR SBGR 221200Z 07009KT 6000 OVC006 19/18 Q1024
08:00
I
18 °C 4,5 km 500 ft 070° 070° 9 kt METAR SBGR 221100Z 07009KT 4500 BR OVC005 18/17 Q1024
07:00
I
18 °C 4 km 500 ft 070° 070° 8 kt METAR SBGR 221000Z 07008KT 4000 BR OVC005 18/18 Q1023
06:00
L
18 °C 5 km 400 ft 060° 060° 8 kt METAR SBGR 220900Z 06008KT 5000 BR OVC004 18/18 Q1023
05:00
L
18 °C 3 km 300 ft 060° 060° 9 kt METAR SBGR 220800Z 06009KT 3000 BR OVC003 18/18 Q1022
04:00
L
18 °C 3 km 300 ft 060° 060° 10 kt METAR SBGR 220700Z 06010KT 3000 BR OVC003 18/18 Q1022
03:00
L
18 °C 4,5 km 400 ft 070° 070° 11 kt METAR SBGR 220600Z 07011KT 4500 BR OVC004 18/18 Q1022
02:00
I
18 °C 6 km 700 ft 070° 070° 9 kt METAR SBGR 220500Z 07009KT 6000 FEW004 BKN007 18/18 Q1023
01:00
I
18 °C 5 km 900 ft 080° 080° 9 kt METAR SBGR 220400Z 08009KT 5000 BR FEW003 BKN009 18/18 Q1023
00:00
M
17 °C 5 km - 090° 090° 4 kt METAR SBGR 220300Z 09004KT 5000 BR FEW005 17/17 Q1023

2024年5月21日

时间 代码 天气 温度 能见度 天花板 METAR/SPECI
23:15
I
17 °C 5 km 500 ft 140° 140° 2 kt METAR SBGR 220215Z 14002KT 5000 BR BKN005 17/17 Q1023
23:00
M
17 °C 5 km - 130° 130° 2 kt METAR SBGR 220200Z 13002KT 5000 BR SCT005 17/17 Q1023
22:00
M
16 °C 5 km - 180° 180° 1 kt METAR SBGR 220100Z 18001KT 5000 BR FEW007 16/16 Q1024
20:00
V
19 °C 8 km - 130° 130° 4 kt METAR SBGR 212300Z 13004KT 8000 NSC 19/18 Q1023
19:00
V
21 °C 8 km - 100° 100° 4 kt METAR SBGR 212200Z 10004KT 8000 NSC 21/18 Q1022
18:00
V
21 °C 10 km+ - 080° 080° 4 kt METAR SBGR 212100Z 08004KT CAVOK 21/18 Q1022
17:00
V
22 °C 10 km+ - 050° 050° 7 kt METAR SBGR 212000Z 05007KT CAVOK 22/18 Q1022
16:00
V
23 °C 10 km+ - 070° 070° 8 kt METAR SBGR 211900Z 07008KT 9999 FEW017 23/18 Q1022
15:00
V
24 °C 10 km+ - 060° 060° 7 kt METAR SBGR 211800Z 06007KT 9999 FEW020 24/18 Q1022
14:00
V
23 °C 10 km+ - 090° 090° 8 kt METAR SBGR 211700Z 09008KT 9999 SCT017 23/17 Q1023
13:00
M
22 °C 9 km 1.700 ft 080° 080° 7 kt METAR SBGR 211600Z 08007KT 9000 OVC017 22/17 Q1024
12:00
M
21 °C 9 km 1.700 ft 090° 090° 5 kt METAR SBGR 211500Z 09005KT 9000 OVC017 21/17 Q1024
11:00
M
20 °C 8 km 1.300 ft 120° 120° 4 kt METAR SBGR 211400Z 12004KT 8000 OVC013 20/16 Q1025
10:00
M
19 °C 8 km 1.100 ft 130° 130° 4 kt METAR SBGR 211300Z 13004KT 8000 OVC011 19/16 Q1025
09:00
I
18 °C 8 km 900 ft 110° 110° 7 kt METAR SBGR 211200Z 11007KT 8000 OVC009 18/16 Q1025
08:00
M
18 °C 8 km 2.700 ft 120° 120° 6 kt METAR SBGR 211100Z 12006KT 8000 OVC027 18/16 Q1024
07:00
M
18 °C 9 km 1.000 ft 100° 100° 5 kt METAR SBGR 211000Z 10005KT 9000 OVC010 18/16 Q1023
06:00
M
18 °C 9 km 1.000 ft 100° 100° 6 kt METAR SBGR 210900Z 10006KT 9000 OVC010 18/16 Q1023
05:00
M
18 °C 10 km+ 1.000 ft 110° 110° 5 kt METAR SBGR 210800Z 11005KT 9999 BKN010 OVC019 18/16 Q1022
04:00
M
18 °C 10 km+ 1.000 ft 120° 120° 4 kt METAR SBGR 210700Z 12004KT 9999 BKN010 OVC019 18/16 Q1022
03:00
I
18 °C 8 km 800 ft 100° 100° 5 kt METAR SBGR 210600Z 10005KT 8000 OVC008 18/16 Q1022
报告变更